sensor_id;sensor_type;location;lat;lon;timestamp;P1;durP1;ratioP1;P2;durP2;ratioP2
52962;SDS011;38827;53.024;6.596;2022-11-15T00:00:33;30.50;;;19.98;;
52962;SDS011;38827;53.024;6.596;2022-11-15T00:02:59;28.80;;;20.13;;
52962;SDS011;38827;53.024;6.596;2022-11-15T00:05:24;29.20;;;20.52;;
52962;SDS011;38827;53.024;6.596;2022-11-15T00:07:50;29.42;;;19.33;;
52962;SDS011;38827;53.024;6.596;2022-11-15T00:10:16;29.88;;;20.52;;
52962;SDS011;38827;53.024;6.596;2022-11-15T00:12:43;30.45;;;19.98;;
52962;SDS011;38827;53.024;6.596;2022-11-15T00:15:08;30.20;;;20.15;;
52962;SDS011;38827;53.024;6.596;2022-11-15T00:17:34;28.58;;;19.90;;
52962;SDS011;38827;53.024;6.596;2022-11-15T00:19:59;27.45;;;18.85;;
52962;SDS011;38827;53.024;6.596;2022-11-15T00:22:31;27.67;;;19.10;;
52962;SDS011;38827;53.024;6.596;2022-11-15T00:24:58;29.35;;;19.98;;
52962;SDS011;38827;53.024;6.596;2022-11-15T00:27:25;27.77;;;19.50;;
52962;SDS011;38827;53.024;6.596;2022-11-15T00:29:52;29.67;;;20.10;;
52962;SDS011;38827;53.024;6.596;2022-11-15T00:32:18;26.73;;;19.25;;
52962;SDS011;38827;53.024;6.596;2022-11-15T00:34:43;26.45;;;19.40;;
52962;SDS011;38827;53.024;6.596;2022-11-15T00:37:09;29.15;;;19.73;;
52962;SDS011;38827;53.024;6.596;2022-11-15T00:39:35;28.52;;;18.25;;
52962;SDS011;38827;53.024;6.596;2022-11-15T00:42:00;25.88;;;18.38;;
52962;SDS011;38827;53.024;6.596;2022-11-15T00:44:26;28.25;;;18.02;;
52962;SDS011;38827;53.024;6.596;2022-11-15T00:46:51;24.65;;;16.90;;
52962;SDS011;38827;53.024;6.596;2022-11-15T00:49:17;23.42;;;17.42;;
52962;SDS011;38827;53.024;6.596;2022-11-15T00:51:43;26.15;;;17.67;;
52962;SDS011;38827;53.024;6.596;2022-11-15T00:54:08;23.90;;;17.15;;
52962;SDS011;38827;53.024;6.596;2022-11-15T00:56:34;26.13;;;17.75;;
52962;SDS011;38827;53.024;6.596;2022-11-15T00:59:00;25.77;;;17.00;;
52962;SDS011;38827;53.024;6.596;2022-11-15T01:01:25;28.52;;;18.33;;
52962;SDS011;38827;53.024;6.596;2022-11-15T01:03:51;27.70;;;19.80;;
52962;SDS011;38827;53.024;6.596;2022-11-15T01:06:17;27.52;;;19.65;;
52962;SDS011;38827;53.024;6.596;2022-11-15T01:08:42;29.58;;;20.27;;
52962;SDS011;38827;53.024;6.596;2022-11-15T01:11:09;29.65;;;20.20;;
52962;SDS011;38827;53.024;6.596;2022-11-15T01:13:36;29.25;;;19.73;;
52962;SDS011;38827;53.024;6.596;2022-11-15T01:18:40;29.33;;;19.15;;
52962;SDS011;38827;53.024;6.596;2022-11-15T01:21:10;27.00;;;18.80;;
52962;SDS011;38827;53.024;6.596;2022-11-15T01:23:38;30.08;;;20.08;;
52962;SDS011;38827;53.024;6.596;2022-11-15T01:26:05;29.85;;;19.63;;
52962;SDS011;38827;53.024;6.596;2022-11-15T01:28:34;28.02;;;19.23;;
52962;SDS011;38827;53.024;6.596;2022-11-15T01:31:01;28.70;;;19.95;;
52962;SDS011;38827;53.024;6.596;2022-11-15T01:33:28;29.40;;;18.80;;
52962;SDS011;38827;53.024;6.596;2022-11-15T01:35:55;29.25;;;19.13;;
52962;SDS011;38827;53.024;6.596;2022-11-15T01:38:21;28.38;;;18.85;;
52962;SDS011;38827;53.024;6.596;2022-11-15T01:40:47;30.50;;;20.08;;
52962;SDS011;38827;53.024;6.596;2022-11-15T01:43:30;28.20;;;19.35;;
52962;SDS011;38827;53.024;6.596;2022-11-15T01:55:29;31.05;;;19.10;;
52962;SDS011;38827;53.024;6.596;2022-11-15T01:58:04;32.58;;;20.33;;
52962;SDS011;38827;53.024;6.596;2022-11-15T02:00:33;32.53;;;20.33;;
52962;SDS011;38827;53.024;6.596;2022-11-15T02:02:59;31.73;;;19.90;;
52962;SDS011;38827;53.024;6.596;2022-11-15T02:05:26;31.15;;;19.27;;
52962;SDS011;38827;53.024;6.596;2022-11-15T02:07:52;33.63;;;20.38;;
52962;SDS011;38827;53.024;6.596;2022-11-15T02:10:19;36.03;;;20.73;;
52962;SDS011;38827;53.024;6.596;2022-11-15T02:12:46;33.65;;;20.98;;
52962;SDS011;38827;53.024;6.596;2022-11-15T02:15:13;36.10;;;21.23;;
52962;SDS011;38827;53.024;6.596;2022-11-15T02:24:06;35.00;;;20.92;;
52962;SDS011;38827;53.024;6.596;2022-11-15T02:30:04;34.63;;;20.63;;
52962;SDS011;38827;53.024;6.596;2022-11-15T02:38:12;33.75;;;20.73;;
52962;SDS011;38827;53.024;6.596;2022-11-15T02:41:05;33.60;;;20.15;;
52962;SDS011;38827;53.024;6.596;2022-11-15T02:43:38;33.42;;;20.25;;
52962;SDS011;38827;53.024;6.596;2022-11-15T02:46:35;35.00;;;20.60;;
52962;SDS011;38827;53.024;6.596;2022-11-15T02:49:28;36.38;;;21.33;;
52962;SDS011;38827;53.024;6.596;2022-11-15T02:51:57;37.58;;;21.80;;
52962;SDS011;38827;53.024;6.596;2022-11-15T02:54:24;33.25;;;21.05;;
52962;SDS011;38827;53.024;6.596;2022-11-15T02:56:54;33.33;;;19.90;;
52962;SDS011;38827;53.024;6.596;2022-11-15T03:07:54;33.30;;;20.17;;
52962;SDS011;38827;53.024;6.596;2022-11-15T03:10:26;36.65;;;20.35;;
52962;SDS011;38827;53.024;6.596;2022-11-15T03:16:48;34.08;;;19.35;;
52962;SDS011;38827;53.024;6.596;2022-11-15T03:22:06;41.90;;;21.63;;
52962;SDS011;38827;53.024;6.596;2022-11-15T03:24:34;40.03;;;21.15;;
52962;SDS011;38827;53.024;6.596;2022-11-15T03:27:02;38.58;;;21.45;;
52962;SDS011;38827;53.024;6.596;2022-11-15T03:29:34;39.97;;;20.98;;
52962;SDS011;38827;53.024;6.596;2022-11-15T03:32:07;42.03;;;21.92;;
52962;SDS011;38827;53.024;6.596;2022-11-15T03:37:40;45.40;;;21.73;;
52962;SDS011;38827;53.024;6.596;2022-11-15T03:40:38;45.70;;;21.67;;
52962;SDS011;38827;53.024;6.596;2022-11-15T03:45:49;47.05;;;22.25;;
52962;SDS011;38827;53.024;6.596;2022-11-15T03:48:21;46.13;;;23.92;;
52962;SDS011;38827;53.024;6.596;2022-11-15T03:50:50;47.28;;;22.77;;
52962;SDS011;38827;53.024;6.596;2022-11-15T03:53:16;54.45;;;24.13;;
52962;SDS011;38827;53.024;6.596;2022-11-15T03:55:41;47.85;;;23.40;;
52962;SDS011;38827;53.024;6.596;2022-11-15T03:58:07;55.95;;;25.63;;
52962;SDS011;38827;53.024;6.596;2022-11-15T04:03:00;59.20;;;24.87;;
52962;SDS011;38827;53.024;6.596;2022-11-15T04:05:25;50.58;;;24.70;;
52962;SDS011;38827;53.024;6.596;2022-11-15T04:07:51;53.20;;;24.75;;
52962;SDS011;38827;53.024;6.596;2022-11-15T04:10:17;61.63;;;25.85;;
52962;SDS011;38827;53.024;6.596;2022-11-15T04:12:43;56.70;;;25.52;;
52962;SDS011;38827;53.024;6.596;2022-11-15T04:15:16;60.88;;;26.13;;
52962;SDS011;38827;53.024;6.596;2022-11-15T04:17:45;52.63;;;25.08;;
52962;SDS011;38827;53.024;6.596;2022-11-15T04:23:00;61.25;;;26.48;;
52962;SDS011;38827;53.024;6.596;2022-11-15T04:25:45;54.95;;;26.40;;
52962;SDS011;38827;53.024;6.596;2022-11-15T04:28:15;60.17;;;25.42;;
52962;SDS011;38827;53.024;6.596;2022-11-15T04:30:40;64.97;;;27.42;;
52962;SDS011;38827;53.024;6.596;2022-11-15T04:33:06;61.88;;;27.10;;
52962;SDS011;38827;53.024;6.596;2022-11-15T04:35:32;61.42;;;29.38;;
52962;SDS011;38827;53.024;6.596;2022-11-15T04:37:58;64.10;;;28.88;;
52962;SDS011;38827;53.024;6.596;2022-11-15T04:40:25;71.70;;;28.48;;
52962;SDS011;38827;53.024;6.596;2022-11-15T04:42:51;68.50;;;29.42;;
52962;SDS011;38827;53.024;6.596;2022-11-15T04:51:34;67.15;;;29.25;;
52962;SDS011;38827;53.024;6.596;2022-11-15T04:54:00;79.43;;;31.67;;
52962;SDS011;38827;53.024;6.596;2022-11-15T04:56:26;80.40;;;32.90;;
52962;SDS011;38827;53.024;6.596;2022-11-15T04:58:51;82.68;;;33.40;;
52962;SDS011;38827;53.024;6.596;2022-11-15T05:01:17;81.72;;;33.40;;
52962;SDS011;38827;53.024;6.596;2022-11-15T05:03:43;79.75;;;33.42;;
52962;SDS011;38827;53.024;6.596;2022-11-15T05:06:28;74.30;;;32.00;;
52962;SDS011;38827;53.024;6.596;2022-11-15T05:08:54;87.13;;;34.47;;
52962;SDS011;38827;53.024;6.596;2022-11-15T05:11:20;81.55;;;33.42;;
52962;SDS011;38827;53.024;6.596;2022-11-15T05:13:46;74.80;;;33.28;;
52962;SDS011;38827;53.024;6.596;2022-11-15T05:16:12;89.22;;;35.75;;
52962;SDS011;38827;53.024;6.596;2022-11-15T05:18:38;74.72;;;33.28;;
52962;SDS011;38827;53.024;6.596;2022-11-15T05:21:07;90.35;;;35.33;;
52962;SDS011;38827;53.024;6.596;2022-11-15T05:23:34;84.93;;;34.65;;
52962;SDS011;38827;53.024;6.596;2022-11-15T05:26:00;91.95;;;34.80;;
52962;SDS011;38827;53.024;6.596;2022-11-15T05:28:27;86.18;;;36.13;;
52962;SDS011;38827;53.024;6.596;2022-11-15T05:30:52;86.25;;;34.33;;
52962;SDS011;38827;53.024;6.596;2022-11-15T05:33:19;83.78;;;34.78;;
52962;SDS011;38827;53.024;6.596;2022-11-15T05:35:46;80.60;;;34.63;;
52962;SDS011;38827;53.024;6.596;2022-11-15T05:38:19;81.93;;;35.10;;
52962;SDS011;38827;53.024;6.596;2022-11-15T05:40:45;85.38;;;37.78;;
52962;SDS011;38827;53.024;6.596;2022-11-15T05:43:10;76.93;;;34.28;;
52962;SDS011;38827;53.024;6.596;2022-11-15T05:45:36;84.32;;;35.65;;
52962;SDS011;38827;53.024;6.596;2022-11-15T05:48:04;87.13;;;36.95;;
52962;SDS011;38827;53.024;6.596;2022-11-15T05:50:34;79.15;;;34.90;;
52962;SDS011;38827;53.024;6.596;2022-11-15T05:53:03;85.57;;;36.30;;
52962;SDS011;38827;53.024;6.596;2022-11-15T05:55:30;74.75;;;35.65;;
52962;SDS011;38827;53.024;6.596;2022-11-15T05:57:56;74.50;;;34.40;;
52962;SDS011;38827;53.024;6.596;2022-11-15T06:00:22;66.13;;;33.67;;
52962;SDS011;38827;53.024;6.596;2022-11-15T06:02:47;68.13;;;32.95;;
52962;SDS011;38827;53.024;6.596;2022-11-15T06:05:13;68.00;;;33.88;;
52962;SDS011;38827;53.024;6.596;2022-11-15T06:07:39;65.38;;;32.20;;
52962;SDS011;38827;53.024;6.596;2022-11-15T06:10:05;66.32;;;33.67;;
52962;SDS011;38827;53.024;6.596;2022-11-15T06:12:31;71.93;;;34.67;;
52962;SDS011;38827;53.024;6.596;2022-11-15T06:14:57;64.40;;;32.03;;
52962;SDS011;38827;53.024;6.596;2022-11-15T06:17:22;66.75;;;33.55;;
52962;SDS011;38827;53.024;6.596;2022-11-15T06:19:48;71.55;;;34.00;;
52962;SDS011;38827;53.024;6.596;2022-11-15T06:22:14;62.50;;;32.10;;
52962;SDS011;38827;53.024;6.596;2022-11-15T06:24:39;68.40;;;32.63;;
52962;SDS011;38827;53.024;6.596;2022-11-15T06:27:05;65.55;;;32.30;;
52962;SDS011;38827;53.024;6.596;2022-11-15T06:29:30;63.15;;;31.38;;
52962;SDS011;38827;53.024;6.596;2022-11-15T06:31:56;60.00;;;30.83;;
52962;SDS011;38827;53.024;6.596;2022-11-15T06:34:22;57.92;;;31.92;;
52962;SDS011;38827;53.024;6.596;2022-11-15T06:36:47;70.95;;;32.65;;
52962;SDS011;38827;53.024;6.596;2022-11-15T06:39:13;69.32;;;32.15;;
52962;SDS011;38827;53.024;6.596;2022-11-15T06:41:39;62.42;;;31.85;;
52962;SDS011;38827;53.024;6.596;2022-11-15T06:44:07;68.32;;;32.47;;
52962;SDS011;38827;53.024;6.596;2022-11-15T06:46:33;65.22;;;33.00;;
52962;SDS011;38827;53.024;6.596;2022-11-15T06:48:58;64.65;;;31.67;;
52962;SDS011;38827;53.024;6.596;2022-11-15T06:51:24;60.70;;;30.65;;
52962;SDS011;38827;53.024;6.596;2022-11-15T06:56:23;64.30;;;31.83;;
52962;SDS011;38827;53.024;6.596;2022-11-15T07:03:59;60.40;;;31.88;;
52962;SDS011;38827;53.024;6.596;2022-11-15T07:06:25;62.80;;;30.67;;
52962;SDS011;38827;53.024;6.596;2022-11-15T07:08:50;54.40;;;28.70;;
52962;SDS011;38827;53.024;6.596;2022-11-15T07:11:16;59.67;;;30.08;;
52962;SDS011;38827;53.024;6.596;2022-11-15T07:13:41;58.67;;;29.45;;
52962;SDS011;38827;53.024;6.596;2022-11-15T07:16:08;55.10;;;29.55;;
52962;SDS011;38827;53.024;6.596;2022-11-15T07:18:38;50.90;;;28.10;;
52962;SDS011;38827;53.024;6.596;2022-11-15T07:21:06;58.08;;;28.90;;
52962;SDS011;38827;53.024;6.596;2022-11-15T07:23:36;53.83;;;27.27;;
52962;SDS011;38827;53.024;6.596;2022-11-15T07:26:03;54.65;;;27.58;;
52962;SDS011;38827;53.024;6.596;2022-11-15T07:28:29;47.30;;;26.58;;
52962;SDS011;38827;53.024;6.596;2022-11-15T07:30:54;53.28;;;27.55;;
52962;SDS011;38827;53.024;6.596;2022-11-15T07:33:20;50.20;;;28.60;;
52962;SDS011;38827;53.024;6.596;2022-11-15T07:35:46;44.85;;;26.15;;
52962;SDS011;38827;53.024;6.596;2022-11-15T07:38:15;50.28;;;26.65;;
52962;SDS011;38827;53.024;6.596;2022-11-15T07:40:44;44.78;;;25.48;;
52962;SDS011;38827;53.024;6.596;2022-11-15T07:43:10;46.70;;;25.25;;
52962;SDS011;38827;53.024;6.596;2022-11-15T07:45:45;45.30;;;25.65;;
52962;SDS011;38827;53.024;6.596;2022-11-15T07:48:11;51.67;;;27.23;;
52962;SDS011;38827;53.024;6.596;2022-11-15T07:50:39;42.88;;;24.95;;
52962;SDS011;38827;53.024;6.596;2022-11-15T07:53:07;38.58;;;25.02;;
52962;SDS011;38827;53.024;6.596;2022-11-15T07:55:33;39.35;;;23.65;;
52962;SDS011;38827;53.024;6.596;2022-11-15T07:58:03;41.78;;;24.52;;
52962;SDS011;38827;53.024;6.596;2022-11-15T08:00:30;36.20;;;22.27;;
52962;SDS011;38827;53.024;6.596;2022-11-15T08:05:38;36.95;;;22.13;;
52962;SDS011;38827;53.024;6.596;2022-11-15T08:08:06;36.45;;;23.38;;
52962;SDS011;38827;53.024;6.596;2022-11-15T08:10:35;35.85;;;22.30;;
52962;SDS011;38827;53.024;6.596;2022-11-15T08:13:02;37.47;;;22.13;;
52962;SDS011;38827;53.024;6.596;2022-11-15T08:15:30;34.13;;;21.58;;
52962;SDS011;38827;53.024;6.596;2022-11-15T08:17:57;35.95;;;21.95;;
52962;SDS011;38827;53.024;6.596;2022-11-15T08:20:24;32.10;;;20.98;;
52962;SDS011;38827;53.024;6.596;2022-11-15T08:22:51;32.45;;;21.80;;
52962;SDS011;38827;53.024;6.596;2022-11-15T08:25:16;32.85;;;20.90;;
52962;SDS011;38827;53.024;6.596;2022-11-15T08:27:42;30.85;;;19.92;;
52962;SDS011;38827;53.024;6.596;2022-11-15T08:30:08;31.38;;;19.52;;
52962;SDS011;38827;53.024;6.596;2022-11-15T08:32:34;27.33;;;19.33;;
52962;SDS011;38827;53.024;6.596;2022-11-15T08:35:00;31.33;;;20.70;;
52962;SDS011;38827;53.024;6.596;2022-11-15T08:37:26;28.52;;;19.10;;
52962;SDS011;38827;53.024;6.596;2022-11-15T08:39:51;29.30;;;19.45;;
52962;SDS011;38827;53.024;6.596;2022-11-15T08:42:17;29.80;;;19.35;;
52962;SDS011;38827;53.024;6.596;2022-11-15T08:44:42;33.63;;;20.08;;
52962;SDS011;38827;53.024;6.596;2022-11-15T08:47:20;26.88;;;18.48;;
52962;SDS011;38827;53.024;6.596;2022-11-15T08:49:46;26.15;;;18.75;;
52962;SDS011;38827;53.024;6.596;2022-11-15T08:52:12;33.38;;;20.85;;
52962;SDS011;38827;53.024;6.596;2022-11-15T08:54:39;27.33;;;19.13;;
52962;SDS011;38827;53.024;6.596;2022-11-15T08:57:05;30.23;;;19.52;;
52962;SDS011;38827;53.024;6.596;2022-11-15T08:59:32;26.80;;;17.85;;
52962;SDS011;38827;53.024;6.596;2022-11-15T09:01:57;30.85;;;18.35;;
52962;SDS011;38827;53.024;6.596;2022-11-15T09:04:23;26.83;;;18.10;;
52962;SDS011;38827;53.024;6.596;2022-11-15T09:06:49;26.92;;;18.83;;
52962;SDS011;38827;53.024;6.596;2022-11-15T09:09:14;28.48;;;18.35;;
52962;SDS011;38827;53.024;6.596;2022-11-15T09:11:55;26.08;;;17.17;;
52962;SDS011;38827;53.024;6.596;2022-11-15T09:14:21;25.70;;;17.35;;
52962;SDS011;38827;53.024;6.596;2022-11-15T09:16:47;26.90;;;18.33;;
52962;SDS011;38827;53.024;6.596;2022-11-15T09:19:13;28.42;;;17.90;;
52962;SDS011;38827;53.024;6.596;2022-11-15T09:21:39;27.65;;;18.08;;
52962;SDS011;38827;53.024;6.596;2022-11-15T09:24:05;25.45;;;17.90;;
52962;SDS011;38827;53.024;6.596;2022-11-15T09:26:31;27.15;;;17.75;;
52962;SDS011;38827;53.024;6.596;2022-11-15T09:29:16;26.40;;;18.00;;
52962;SDS011;38827;53.024;6.596;2022-11-15T09:32:00;25.38;;;16.50;;
52962;SDS011;38827;53.024;6.596;2022-11-15T09:40:19;21.42;;;15.98;;
52962;SDS011;38827;53.024;6.596;2022-11-15T10:28:42;19.40;;;14.02;;
52962;SDS011;38827;53.024;6.596;2022-11-15T10:31:27;19.45;;;15.40;;
52962;SDS011;38827;53.024;6.596;2022-11-15T10:37:31;19.23;;;13.75;;
52962;SDS011;38827;53.024;6.596;2022-11-15T10:46:39;17.70;;;13.25;;
52962;SDS011;38827;53.024;6.596;2022-11-15T10:52:43;15.43;;;12.60;;
52962;SDS011;38827;53.024;6.596;2022-11-15T10:55:46;21.63;;;13.57;;
52962;SDS011;38827;53.024;6.596;2022-11-15T11:00:56;16.85;;;12.55;;
52962;SDS011;38827;53.024;6.596;2022-11-15T11:03:41;17.38;;;12.30;;
52962;SDS011;38827;53.024;6.596;2022-11-15T11:06:15;15.13;;;12.30;;
52962;SDS011;38827;53.024;6.596;2022-11-15T11:11:22;15.00;;;11.65;;
52962;SDS011;38827;53.024;6.596;2022-11-15T11:13:48;14.15;;;11.27;;
52962;SDS011;38827;53.024;6.596;2022-11-15T11:21:41;12.45;;;10.02;;
52962;SDS011;38827;53.024;6.596;2022-11-15T11:29:41;8.90;;;7.07;;
52962;SDS011;38827;53.024;6.596;2022-11-15T11:32:40;7.63;;;5.90;;
52962;SDS011;38827;53.024;6.596;2022-11-15T11:43:43;7.93;;;5.75;;
52962;SDS011;38827;53.024;6.596;2022-11-15T11:51:34;8.10;;;5.40;;
52962;SDS011;38827;53.024;6.596;2022-11-15T11:54:22;6.32;;;5.15;;
52962;SDS011;38827;53.024;6.596;2022-11-15T12:00:12;5.38;;;3.50;;
52962;SDS011;38827;53.024;6.596;2022-11-15T12:03:11;5.53;;;3.08;;
52962;SDS011;38827;53.024;6.596;2022-11-15T12:05:40;6.25;;;3.30;;
52962;SDS011;38827;53.024;6.596;2022-11-15T12:11:03;4.22;;;3.00;;
52962;SDS011;38827;53.024;6.596;2022-11-15T12:13:43;7.47;;;2.65;;
52962;SDS011;38827;53.024;6.596;2022-11-15T12:16:23;5.18;;;2.65;;
52962;SDS011;38827;53.024;6.596;2022-11-15T12:18:53;7.25;;;3.40;;
52962;SDS011;38827;53.024;6.596;2022-11-15T12:21:39;5.53;;;3.55;;
52962;SDS011;38827;53.024;6.596;2022-11-15T12:24:14;6.13;;;3.78;;
52962;SDS011;38827;53.024;6.596;2022-11-15T12:26:50;5.90;;;3.83;;
52962;SDS011;38827;53.024;6.596;2022-11-15T12:34:52;7.43;;;4.28;;
52962;SDS011;38827;53.024;6.596;2022-11-15T12:45:36;7.57;;;4.35;;
52962;SDS011;38827;53.024;6.596;2022-11-15T12:50:59;7.20;;;4.05;;
52962;SDS011;38827;53.024;6.596;2022-11-15T13:04:26;7.55;;;3.42;;
52962;SDS011;38827;53.024;6.596;2022-11-15T13:06:54;6.43;;;3.28;;
52962;SDS011;38827;53.024;6.596;2022-11-15T13:19:35;4.28;;;2.38;;
52962;SDS011;38827;53.024;6.596;2022-11-15T13:23:11;4.70;;;2.65;;
52962;SDS011;38827;53.024;6.596;2022-11-15T13:36:33;7.00;;;3.35;;
52962;SDS011;38827;53.024;6.596;2022-11-15T13:39:11;5.18;;;2.70;;
52962;SDS011;38827;53.024;6.596;2022-11-15T13:42:29;4.05;;;2.20;;
52962;SDS011;38827;53.024;6.596;2022-11-15T13:45:12;4.55;;;2.30;;
52962;SDS011;38827;53.024;6.596;2022-11-15T13:48:52;8.52;;;2.63;;
52962;SDS011;38827;53.024;6.596;2022-11-15T13:54:24;5.95;;;2.35;;
52962;SDS011;38827;53.024;6.596;2022-11-15T13:57:23;3.67;;;2.00;;
52962;SDS011;38827;53.024;6.596;2022-11-15T14:00:03;5.22;;;1.67;;
52962;SDS011;38827;53.024;6.596;2022-11-15T14:02:39;4.15;;;2.40;;
52962;SDS011;38827;53.024;6.596;2022-11-15T14:05:14;2.83;;;1.58;;
52962;SDS011;38827;53.024;6.596;2022-11-15T14:11:15;2.80;;;1.25;;
52962;SDS011;38827;53.024;6.596;2022-11-15T14:23:24;4.90;;;1.30;;
52962;SDS011;38827;53.024;6.596;2022-11-15T14:28:52;4.72;;;1.45;;
52962;SDS011;38827;53.024;6.596;2022-11-15T14:31:17;5.03;;;1.58;;
52962;SDS011;38827;53.024;6.596;2022-11-15T14:33:45;2.25;;;1.20;;
52962;SDS011;38827;53.024;6.596;2022-11-15T14:38:39;4.00;;;1.42;;
52962;SDS011;38827;53.024;6.596;2022-11-15T14:41:39;3.78;;;1.70;;
52962;SDS011;38827;53.024;6.596;2022-11-15T14:44:11;2.22;;;1.27;;
52962;SDS011;38827;53.024;6.596;2022-11-15T14:46:37;2.80;;;1.35;;
52962;SDS011;38827;53.024;6.596;2022-11-15T14:49:09;3.28;;;1.60;;
52962;SDS011;38827;53.024;6.596;2022-11-15T14:51:35;4.13;;;2.00;;
52962;SDS011;38827;53.024;6.596;2022-11-15T14:54:00;2.88;;;1.58;;
52962;SDS011;38827;53.024;6.596;2022-11-15T14:56:26;2.90;;;1.40;;
52962;SDS011;38827;53.024;6.596;2022-11-15T14:59:12;2.90;;;1.65;;
52962;SDS011;38827;53.024;6.596;2022-11-15T15:01:38;2.42;;;1.52;;
52962;SDS011;38827;53.024;6.596;2022-11-15T15:04:14;3.33;;;2.50;;
52962;SDS011;38827;53.024;6.596;2022-11-15T15:09:45;3.72;;;2.85;;
52962;SDS011;38827;53.024;6.596;2022-11-15T15:12:21;4.85;;;2.40;;
52962;SDS011;38827;53.024;6.596;2022-11-15T15:14:48;5.07;;;2.40;;
52962;SDS011;38827;53.024;6.596;2022-11-15T15:17:15;2.30;;;2.10;;
52962;SDS011;38827;53.024;6.596;2022-11-15T15:20:15;4.50;;;2.50;;
52962;SDS011;38827;53.024;6.596;2022-11-15T15:22:57;7.10;;;6.15;;
52962;SDS011;38827;53.024;6.596;2022-11-15T15:25:35;4.72;;;3.50;;
52962;SDS011;38827;53.024;6.596;2022-11-15T15:28:07;5.03;;;3.42;;
52962;SDS011;38827;53.024;6.596;2022-11-15T15:30:41;5.13;;;3.58;;
52962;SDS011;38827;53.024;6.596;2022-11-15T15:38:24;6.63;;;3.22;;
52962;SDS011;38827;53.024;6.596;2022-11-15T15:41:13;5.53;;;3.10;;
52962;SDS011;38827;53.024;6.596;2022-11-15T15:46:17;4.07;;;3.78;;
52962;SDS011;38827;53.024;6.596;2022-11-15T15:49:23;4.43;;;4.03;;
52962;SDS011;38827;53.024;6.596;2022-11-15T15:51:57;4.55;;;3.70;;
52962;SDS011;38827;53.024;6.596;2022-11-15T15:54:23;5.50;;;4.10;;
52962;SDS011;38827;53.024;6.596;2022-11-15T15:56:49;6.85;;;4.63;;
52962;SDS011;38827;53.024;6.596;2022-11-15T15:59:26;5.03;;;4.47;;
52962;SDS011;38827;53.024;6.596;2022-11-15T16:01:52;4.45;;;4.00;;
52962;SDS011;38827;53.024;6.596;2022-11-15T16:07:48;4.38;;;3.97;;
52962;SDS011;38827;53.024;6.596;2022-11-15T16:13:16;4.80;;;3.40;;
52962;SDS011;38827;53.024;6.596;2022-11-15T16:15:52;4.13;;;3.70;;
52962;SDS011;38827;53.024;6.596;2022-11-15T16:18:19;4.60;;;3.88;;
52962;SDS011;38827;53.024;6.596;2022-11-15T16:20:46;5.90;;;3.35;;
52962;SDS011;38827;53.024;6.596;2022-11-15T16:23:18;3.83;;;3.47;;
52962;SDS011;38827;53.024;6.596;2022-11-15T16:25:47;4.60;;;3.28;;
52962;SDS011;38827;53.024;6.596;2022-11-15T16:28:33;6.07;;;3.42;;
52962;SDS011;38827;53.024;6.596;2022-11-15T16:34:07;5.10;;;3.60;;
52962;SDS011;38827;53.024;6.596;2022-11-15T16:36:48;7.50;;;3.47;;
52962;SDS011;38827;53.024;6.596;2022-11-15T16:57:05;2.60;;;2.15;;
52962;SDS011;38827;53.024;6.596;2022-11-15T17:10:20;2.67;;;1.60;;
52962;SDS011;38827;53.024;6.596;2022-11-15T17:12:47;2.40;;;1.73;;
52962;SDS011;38827;53.024;6.596;2022-11-15T17:15:14;2.55;;;1.95;;
52962;SDS011;38827;53.024;6.596;2022-11-15T17:17:41;2.65;;;1.50;;
52962;SDS011;38827;53.024;6.596;2022-11-15T17:20:15;3.92;;;1.70;;
52962;SDS011;38827;53.024;6.596;2022-11-15T17:22:49;2.22;;;1.50;;
52962;SDS011;38827;53.024;6.596;2022-11-15T17:25:16;3.58;;;1.50;;
52962;SDS011;38827;53.024;6.596;2022-11-15T17:27:42;1.70;;;1.60;;
52962;SDS011;38827;53.024;6.596;2022-11-15T17:33:14;2.17;;;1.30;;
52962;SDS011;38827;53.024;6.596;2022-11-15T17:38:47;3.10;;;1.40;;
52962;SDS011;38827;53.024;6.596;2022-11-15T17:43:47;1.67;;;1.20;;
52962;SDS011;38827;53.024;6.596;2022-11-15T17:46:17;1.77;;;1.30;;
52962;SDS011;38827;53.024;6.596;2022-11-15T17:51:56;4.23;;;3.27;;
52962;SDS011;38827;53.024;6.596;2022-11-15T17:54:33;3.63;;;2.00;;
52962;SDS011;38827;53.024;6.596;2022-11-15T17:56:59;3.03;;;2.08;;
52962;SDS011;38827;53.024;6.596;2022-11-15T17:59:25;5.80;;;2.60;;
52962;SDS011;38827;53.024;6.596;2022-11-15T18:01:50;4.68;;;3.35;;
52962;SDS011;38827;53.024;6.596;2022-11-15T18:04:21;2.70;;;1.83;;
52962;SDS011;38827;53.024;6.596;2022-11-15T18:06:55;7.22;;;3.78;;
52962;SDS011;38827;53.024;6.596;2022-11-15T18:21:05;2.95;;;1.50;;
52962;SDS011;38827;53.024;6.596;2022-11-15T18:29:55;3.33;;;1.40;;
52962;SDS011;38827;53.024;6.596;2022-11-15T18:32:21;2.97;;;1.65;;
52962;SDS011;38827;53.024;6.596;2022-11-15T18:38:09;4.50;;;2.00;;
52962;SDS011;38827;53.024;6.596;2022-11-15T18:40:35;4.93;;;3.20;;
52962;SDS011;38827;53.024;6.596;2022-11-15T18:43:00;12.93;;;9.98;;
52962;SDS011;38827;53.024;6.596;2022-11-15T18:45:27;5.20;;;3.72;;
52962;SDS011;38827;53.024;6.596;2022-11-15T18:51:33;5.68;;;4.30;;
52962;SDS011;38827;53.024;6.596;2022-11-15T18:54:06;10.90;;;6.40;;
52962;SDS011;38827;53.024;6.596;2022-11-15T18:56:36;4.85;;;2.95;;
52962;SDS011;38827;53.024;6.596;2022-11-15T18:59:23;5.57;;;3.78;;
52962;SDS011;38827;53.024;6.596;2022-11-15T19:02:03;4.63;;;2.28;;
52962;SDS011;38827;53.024;6.596;2022-11-15T19:04:34;3.83;;;3.15;;
52962;SDS011;38827;53.024;6.596;2022-11-15T19:16:48;4.20;;;2.20;;
52962;SDS011;38827;53.024;6.596;2022-11-15T19:26:37;6.05;;;3.53;;
52962;SDS011;38827;53.024;6.596;2022-11-15T19:29:07;5.10;;;3.10;;
52962;SDS011;38827;53.024;6.596;2022-11-15T19:34:33;5.07;;;2.33;;
52962;SDS011;38827;53.024;6.596;2022-11-15T19:37:00;3.78;;;2.10;;
52962;SDS011;38827;53.024;6.596;2022-11-15T19:39:27;3.30;;;2.42;;
52962;SDS011;38827;53.024;6.596;2022-11-15T19:46:32;2.40;;;1.98;;
52962;SDS011;38827;53.024;6.596;2022-11-15T20:19:15;2.90;;;2.47;;
52962;SDS011;38827;53.024;6.596;2022-11-15T20:43:01;3.53;;;2.60;;
52962;SDS011;38827;53.024;6.596;2022-11-15T20:45:27;7.00;;;2.78;;
52962;SDS011;38827;53.024;6.596;2022-11-15T20:48:11;4.95;;;2.78;;
52962;SDS011;38827;53.024;6.596;2022-11-15T20:53:25;5.57;;;2.60;;
52962;SDS011;38827;53.024;6.596;2022-11-15T20:55:51;3.85;;;2.95;;
52962;SDS011;38827;53.024;6.596;2022-11-15T20:58:22;5.05;;;2.63;;
52962;SDS011;38827;53.024;6.596;2022-11-15T21:04:05;6.32;;;2.80;;
52962;SDS011;38827;53.024;6.596;2022-11-15T21:06:34;6.10;;;2.72;;
52962;SDS011;38827;53.024;6.596;2022-11-15T21:08:59;6.13;;;3.00;;
52962;SDS011;38827;53.024;6.596;2022-11-15T21:12:11;4.20;;;2.70;;
52962;SDS011;38827;53.024;6.596;2022-11-15T21:18:03;4.88;;;3.35;;
52962;SDS011;38827;53.024;6.596;2022-11-15T21:20:40;7.20;;;3.15;;
52962;SDS011;38827;53.024;6.596;2022-11-15T21:23:06;5.82;;;3.70;;
52962;SDS011;38827;53.024;6.596;2022-11-15T21:25:32;6.37;;;3.77;;
52962;SDS011;38827;53.024;6.596;2022-11-15T21:28:00;5.10;;;3.70;;
52962;SDS011;38827;53.024;6.596;2022-11-15T21:30:26;5.15;;;3.40;;
52962;SDS011;38827;53.024;6.596;2022-11-15T21:32:51;5.60;;;3.53;;
52962;SDS011;38827;53.024;6.596;2022-11-15T21:35:17;5.90;;;3.50;;
52962;SDS011;38827;53.024;6.596;2022-11-15T21:37:42;5.38;;;3.50;;
52962;SDS011;38827;53.024;6.596;2022-11-15T21:40:09;6.00;;;3.53;;
52962;SDS011;38827;53.024;6.596;2022-11-15T21:42:35;5.18;;;3.40;;